sensor_id;sensor_type;location;lat;lon;timestamp;pressure;altitude;pressure_sealevel;temperature;humidity
4392;BME280;2210;51.938;8.488;2023-02-15T00:03:00;101918.56;;;3.53;100.00
4392;BME280;2210;51.938;8.488;2023-02-15T00:07:03;101913.41;;;3.50;100.00
4392;BME280;2210;51.938;8.488;2023-02-15T00:11:14;101915.44;;;3.48;100.00
4392;BME280;2210;51.938;8.488;2023-02-15T00:15:14;101915.44;;;3.30;100.00
4392;BME280;2210;51.938;8.488;2023-02-15T00:19:19;101910.13;;;3.28;100.00
4392;BME280;2210;51.938;8.488;2023-02-15T00:23:33;101898.22;;;3.29;100.00
4392;BME280;2210;51.938;8.488;2023-02-15T00:27:42;101891.19;;;3.09;100.00
4392;BME280;2210;51.938;8.488;2023-02-15T00:31:46;101890.41;;;2.98;100.00
4392;BME280;2210;51.938;8.488;2023-02-15T00:35:46;101884.50;;;2.85;100.00
4392;BME280;2210;51.938;8.488;2023-02-15T00:39:46;101882.22;;;2.80;100.00
4392;BME280;2210;51.938;8.488;2023-02-15T00:43:47;101880.63;;;2.78;100.00
4392;BME280;2210;51.938;8.488;2023-02-15T00:47:47;101879.28;;;2.64;100.00
4392;BME280;2210;51.938;8.488;2023-02-15T00:51:51;101882.75;;;2.66;100.00
4392;BME280;2210;51.938;8.488;2023-02-15T00:55:52;101883.50;;;2.58;100.00
4392;BME280;2210;51.938;8.488;2023-02-15T00:59:52;101894.38;;;2.58;100.00
4392;BME280;2210;51.938;8.488;2023-02-15T01:03:53;101882.59;;;2.58;100.00
4392;BME280;2210;51.938;8.488;2023-02-15T01:07:53;101880.31;;;2.35;100.00
4392;BME280;2210;51.938;8.488;2023-02-15T01:11:53;101882.72;;;2.38;100.00
4392;BME280;2210;51.938;8.488;2023-02-15T01:15:54;101883.09;;;2.15;100.00
4392;BME280;2210;51.938;8.488;2023-02-15T01:19:58;101877.38;;;2.18;100.00
4392;BME280;2210;51.938;8.488;2023-02-15T01:23:59;101869.22;;;2.09;100.00
4392;BME280;2210;51.938;8.488;2023-02-15T01:27:59;101867.69;;;1.96;100.00
4392;BME280;2210;51.938;8.488;2023-02-15T01:31:59;101856.69;;;1.88;100.00
4392;BME280;2210;51.938;8.488;2023-02-15T01:36:00;101854.00;;;1.78;100.00
4392;BME280;2210;51.938;8.488;2023-02-15T01:40:01;101846.97;;;1.76;100.00
4392;BME280;2210;51.938;8.488;2023-02-15T01:44:03;101842.84;;;1.72;100.00
4392;BME280;2210;51.938;8.488;2023-02-15T01:48:19;101847.44;;;1.71;100.00
4392;BME280;2210;51.938;8.488;2023-02-15T01:52:21;101850.88;;;1.63;100.00
4392;BME280;2210;51.938;8.488;2023-02-15T01:56:28;101855.72;;;1.69;100.00
4392;BME280;2210;51.938;8.488;2023-02-15T02:00:33;101854.88;;;1.59;100.00
4392;BME280;2210;51.938;8.488;2023-02-15T02:04:45;101851.59;;;1.46;100.00
4392;BME280;2210;51.938;8.488;2023-02-15T02:08:47;101842.72;;;1.44;100.00
4392;BME280;2210;51.938;8.488;2023-02-15T02:12:51;101842.03;;;1.42;100.00
4392;BME280;2210;51.938;8.488;2023-02-15T02:26:02;101828.00;;;1.37;100.00
4392;BME280;2210;51.938;8.488;2023-02-15T02:30:23;101818.72;;;1.29;100.00
4392;BME280;2210;51.938;8.488;2023-02-15T02:34:43;101827.72;;;1.30;100.00
4392;BME280;2210;51.938;8.488;2023-02-15T02:39:02;101810.88;;;1.16;100.00
4392;BME280;2210;51.938;8.488;2023-02-15T02:43:37;101807.72;;;1.21;100.00
4392;BME280;2210;51.938;8.488;2023-02-15T02:47:43;101807.31;;;1.06;100.00
4392;BME280;2210;51.938;8.488;2023-02-15T02:52:00;101803.47;;;1.09;100.00
4392;BME280;2210;51.938;8.488;2023-02-15T02:56:21;101805.16;;;1.10;100.00
4392;BME280;2210;51.938;8.488;2023-02-15T03:00:25;101789.75;;;1.00;100.00
4392;BME280;2210;51.938;8.488;2023-02-15T03:04:31;101788.56;;;0.83;100.00
4392;BME280;2210;51.938;8.488;2023-02-15T03:08:37;101786.13;;;1.00;100.00
4392;BME280;2210;51.938;8.488;2023-02-15T03:12:39;101785.72;;;1.14;100.00
4392;BME280;2210;51.938;8.488;2023-02-15T03:16:46;101787.72;;;1.22;100.00
4392;BME280;2210;51.938;8.488;2023-02-15T03:20:47;101784.56;;;1.27;100.00
4392;BME280;2210;51.938;8.488;2023-02-15T03:24:59;101785.84;;;1.32;100.00
4392;BME280;2210;51.938;8.488;2023-02-15T03:29:03;101778.81;;;1.40;100.00
4392;BME280;2210;51.938;8.488;2023-02-15T03:33:09;101777.22;;;1.47;100.00
4392;BME280;2210;51.938;8.488;2023-02-15T03:41:34;101777.38;;;1.35;100.00
4392;BME280;2210;51.938;8.488;2023-02-15T03:45:38;101772.25;;;1.32;100.00
4392;BME280;2210;51.938;8.488;2023-02-15T03:50:02;101775.28;;;1.20;100.00
4392;BME280;2210;51.938;8.488;2023-02-15T03:54:12;101766.56;;;1.16;100.00
4392;BME280;2210;51.938;8.488;2023-02-15T03:58:34;101761.56;;;0.82;100.00
4392;BME280;2210;51.938;8.488;2023-02-15T04:07:17;101760.56;;;1.03;100.00
4392;BME280;2210;51.938;8.488;2023-02-15T04:11:17;101753.84;;;1.07;100.00
4392;BME280;2210;51.938;8.488;2023-02-15T04:15:18;101755.13;;;1.03;100.00
4392;BME280;2210;51.938;8.488;2023-02-15T04:19:46;101753.97;;;1.15;100.00
4392;BME280;2210;51.938;8.488;2023-02-15T04:24:05;101758.56;;;1.14;100.00
4392;BME280;2210;51.938;8.488;2023-02-15T04:28:27;101751.09;;;1.16;100.00
4392;BME280;2210;51.938;8.488;2023-02-15T04:32:31;101751.69;;;1.20;100.00
4392;BME280;2210;51.938;8.488;2023-02-15T04:36:31;101755.13;;;1.12;100.00
4392;BME280;2210;51.938;8.488;2023-02-15T04:40:31;101743.50;;;1.30;100.00
4392;BME280;2210;51.938;8.488;2023-02-15T04:44:31;101737.66;;;1.25;100.00
4392;BME280;2210;51.938;8.488;2023-02-15T04:48:35;101735.09;;;1.13;100.00
4392;BME280;2210;51.938;8.488;2023-02-15T04:52:35;101729.53;;;1.15;100.00
4392;BME280;2210;51.938;8.488;2023-02-15T04:56:39;101722.81;;;1.09;100.00
4392;BME280;2210;51.938;8.488;2023-02-15T05:00:39;101727.66;;;1.06;100.00
4392;BME280;2210;51.938;8.488;2023-02-15T05:04:39;101723.97;;;1.07;100.00
4392;BME280;2210;51.938;8.488;2023-02-15T05:08:39;101718.41;;;0.98;100.00
4392;BME280;2210;51.938;8.488;2023-02-15T05:12:40;101730.56;;;0.94;100.00
4392;BME280;2210;51.938;8.488;2023-02-15T05:16:43;101725.56;;;0.90;100.00
4392;BME280;2210;51.938;8.488;2023-02-15T05:20:44;101732.13;;;0.87;100.00
4392;BME280;2210;51.938;8.488;2023-02-15T05:24:47;101731.41;;;0.85;100.00
4392;BME280;2210;51.938;8.488;2023-02-15T05:29:06;101725.72;;;0.69;100.00
4392;BME280;2210;51.938;8.488;2023-02-15T05:33:07;101723.16;;;0.57;100.00
4392;BME280;2210;51.938;8.488;2023-02-15T05:37:10;101722.84;;;0.60;100.00
4392;BME280;2210;51.938;8.488;2023-02-15T05:41:11;101720.00;;;0.52;100.00
4392;BME280;2210;51.938;8.488;2023-02-15T05:45:11;101729.25;;;0.40;100.00
4392;BME280;2210;51.938;8.488;2023-02-15T05:49:14;101724.53;;;0.42;100.00
4392;BME280;2210;51.938;8.488;2023-02-15T05:53:17;101721.13;;;0.40;100.00
4392;BME280;2210;51.938;8.488;2023-02-15T05:57:20;101717.41;;;0.41;100.00
4392;BME280;2210;51.938;8.488;2023-02-15T06:01:21;101708.13;;;0.43;100.00
4392;BME280;2210;51.938;8.488;2023-02-15T06:05:22;101700.13;;;0.42;100.00
4392;BME280;2210;51.938;8.488;2023-02-15T06:09:23;101717.97;;;0.54;100.00
4392;BME280;2210;51.938;8.488;2023-02-15T06:13:23;101714.56;;;0.52;100.00
4392;BME280;2210;51.938;8.488;2023-02-15T06:17:29;101715.84;;;0.48;100.00
4392;BME280;2210;51.938;8.488;2023-02-15T06:21:33;101704.41;;;0.44;100.00
4392;BME280;2210;51.938;8.488;2023-02-15T06:25:33;101715.13;;;0.46;100.00
4392;BME280;2210;51.938;8.488;2023-02-15T06:29:33;101721.13;;;0.40;100.00
4392;BME280;2210;51.938;8.488;2023-02-15T06:33:33;101725.38;;;0.32;100.00
4392;BME280;2210;51.938;8.488;2023-02-15T06:37:34;101721.56;;;0.45;100.00
4392;BME280;2210;51.938;8.488;2023-02-15T06:41:34;101722.25;;;0.47;100.00
4392;BME280;2210;51.938;8.488;2023-02-15T06:45:34;101712.13;;;0.49;100.00
4392;BME280;2210;51.938;8.488;2023-02-15T06:49:43;101708.56;;;0.48;100.00
4392;BME280;2210;51.938;8.488;2023-02-15T06:53:56;101708.00;;;0.45;100.00
4392;BME280;2210;51.938;8.488;2023-02-15T06:57:56;101708.00;;;0.45;100.00
4392;BME280;2210;51.938;8.488;2023-02-15T07:01:59;101707.56;;;0.49;100.00
4392;BME280;2210;51.938;8.488;2023-02-15T07:06:01;101709.44;;;0.59;100.00
4392;BME280;2210;51.938;8.488;2023-02-15T07:10:02;101707.16;;;0.64;100.00
4392;BME280;2210;51.938;8.488;2023-02-15T07:14:02;101712.56;;;0.64;100.00
4392;BME280;2210;51.938;8.488;2023-02-15T07:18:05;101708.84;;;0.65;100.00
4392;BME280;2210;51.938;8.488;2023-02-15T07:22:08;101706.00;;;0.76;100.00
4392;BME280;2210;51.938;8.488;2023-02-15T07:26:09;101711.97;;;0.80;100.00
4392;BME280;2210;51.938;8.488;2023-02-15T07:30:11;101702.28;;;0.87;100.00
4392;BME280;2210;51.938;8.488;2023-02-15T07:34:12;101708.97;;;0.93;100.00
4392;BME280;2210;51.938;8.488;2023-02-15T07:38:12;101700.81;;;1.03;100.00
4392;BME280;2210;51.938;8.488;2023-02-15T07:42:12;101703.94;;;1.08;100.00
4392;BME280;2210;51.938;8.488;2023-02-15T07:46:14;101698.66;;;1.16;100.00
4392;BME280;2210;51.938;8.488;2023-02-15T07:50:15;101692.75;;;1.21;100.00
4392;BME280;2210;51.938;8.488;2023-02-15T07:54:19;101692.88;;;1.29;100.00
4392;BME280;2210;51.938;8.488;2023-02-15T07:58:19;101687.84;;;1.34;100.00
4392;BME280;2210;51.938;8.488;2023-02-15T08:02:19;101687.81;;;1.44;100.00
4392;BME280;2210;51.938;8.488;2023-02-15T08:06:21;101680.19;;;1.57;100.00
4392;BME280;2210;51.938;8.488;2023-02-15T08:10:22;101669.16;;;1.68;100.00
4392;BME280;2210;51.938;8.488;2023-02-15T08:14:45;101671.34;;;1.83;100.00
4392;BME280;2210;51.938;8.488;2023-02-15T08:18:45;101662.59;;;1.89;100.00
4392;BME280;2210;51.938;8.488;2023-02-15T08:22:49;101658.78;;;2.00;100.00
4392;BME280;2210;51.938;8.488;2023-02-15T08:26:52;101656.56;;;2.13;100.00
4392;BME280;2210;51.938;8.488;2023-02-15T08:30:53;101653.44;;;2.26;100.00
4392;BME280;2210;51.938;8.488;2023-02-15T08:34:56;101650.13;;;2.32;100.00
4392;BME280;2210;51.938;8.488;2023-02-15T08:39:04;101652.59;;;2.44;100.00
4392;BME280;2210;51.938;8.488;2023-02-15T08:43:15;101657.81;;;2.55;100.00
4392;BME280;2210;51.938;8.488;2023-02-15T08:47:15;101643.69;;;2.78;100.00
4392;BME280;2210;51.938;8.488;2023-02-15T08:51:21;101649.41;;;2.93;100.00
4392;BME280;2210;51.938;8.488;2023-02-15T08:55:21;101635.34;;;2.97;100.00
4392;BME280;2210;51.938;8.488;2023-02-15T08:59:22;101638.78;;;3.08;100.00
4392;BME280;2210;51.938;8.488;2023-02-15T09:03:23;101634.03;;;3.36;99.75
4392;BME280;2210;51.938;8.488;2023-02-15T09:07:23;101624.91;;;3.53;98.94
4392;BME280;2210;51.938;8.488;2023-02-15T09:11:28;101632.47;;;3.68;97.48
4392;BME280;2210;51.938;8.488;2023-02-15T09:15:29;101625.19;;;3.85;95.61
4392;BME280;2210;51.938;8.488;2023-02-15T09:19:29;101618.94;;;4.01;94.67
4392;BME280;2210;51.938;8.488;2023-02-15T09:23:29;101622.56;;;4.18;93.81
4392;BME280;2210;51.938;8.488;2023-02-15T09:27:32;101607.56;;;4.30;93.00
4392;BME280;2210;51.938;8.488;2023-02-15T09:31:37;101614.03;;;4.54;92.23
4392;BME280;2210;51.938;8.488;2023-02-15T09:35:38;101608.25;;;4.73;90.31
4392;BME280;2210;51.938;8.488;2023-02-15T09:39:41;101612.81;;;4.89;90.18
4392;BME280;2210;51.938;8.488;2023-02-15T09:44:30;101609.94;;;4.91;90.29
4392;BME280;2210;51.938;8.488;2023-02-15T09:48:40;101608.53;;;5.03;89.15
4392;BME280;2210;51.938;8.488;2023-02-15T09:57:37;101597.19;;;5.63;84.67
4392;BME280;2210;51.938;8.488;2023-02-15T10:01:54;101603.13;;;5.74;85.05
4392;BME280;2210;51.938;8.488;2023-02-15T10:10:35;101597.63;;;6.14;82.03
4392;BME280;2210;51.938;8.488;2023-02-15T10:19:25;101598.47;;;6.61;79.68
4392;BME280;2210;51.938;8.488;2023-02-15T10:27:50;101598.78;;;6.66;79.41
4392;BME280;2210;51.938;8.488;2023-02-15T10:32:22;101588.66;;;6.67;80.46
4392;BME280;2210;51.938;8.488;2023-02-15T10:54:14;101558.03;;;7.89;71.67
4392;BME280;2210;51.938;8.488;2023-02-15T10:58:26;101556.94;;;7.84;72.82
4392;BME280;2210;51.938;8.488;2023-02-15T11:07:02;101559.56;;;7.92;73.35
4392;BME280;2210;51.938;8.488;2023-02-15T11:11:06;101566.19;;;8.19;72.69
4392;BME280;2210;51.938;8.488;2023-02-15T11:15:19;101552.63;;;8.39;70.47
4392;BME280;2210;51.938;8.488;2023-02-15T11:19:32;101554.63;;;8.46;70.62
4392;BME280;2210;51.938;8.488;2023-02-15T11:23:36;101556.44;;;8.60;69.94
4392;BME280;2210;51.938;8.488;2023-02-15T11:27:43;101549.63;;;8.56;70.18
4392;BME280;2210;51.938;8.488;2023-02-15T11:31:47;101549.63;;;8.56;71.81
4392;BME280;2210;51.938;8.488;2023-02-15T11:35:55;101547.91;;;8.76;71.58
4392;BME280;2210;51.938;8.488;2023-02-15T11:40:00;101541.78;;;8.81;71.71
4392;BME280;2210;51.938;8.488;2023-02-15T11:48:20;101532.34;;;9.25;71.57
4392;BME280;2210;51.938;8.488;2023-02-15T11:52:20;101539.69;;;9.11;69.79
4392;BME280;2210;51.938;8.488;2023-02-15T11:56:27;101533.41;;;9.31;70.73
4392;BME280;2210;51.938;8.488;2023-02-15T12:00:42;101517.59;;;9.47;71.00
4392;BME280;2210;51.938;8.488;2023-02-15T12:04:48;101520.34;;;9.47;69.03
4392;BME280;2210;51.938;8.488;2023-02-15T12:09:02;101513.69;;;9.76;68.66
4392;BME280;2210;51.938;8.488;2023-02-15T12:13:16;101517.66;;;9.60;68.64
4392;BME280;2210;51.938;8.488;2023-02-15T12:17:18;101506.59;;;9.53;68.19
4392;BME280;2210;51.938;8.488;2023-02-15T12:21:29;101502.44;;;9.77;68.54
4392;BME280;2210;51.938;8.488;2023-02-15T12:25:36;101508.81;;;9.78;69.14
4392;BME280;2210;51.938;8.488;2023-02-15T12:29:59;101499.91;;;9.76;68.83
4392;BME280;2210;51.938;8.488;2023-02-15T12:34:09;101489.13;;;9.88;68.57
4392;BME280;2210;51.938;8.488;2023-02-15T12:42:16;101475.78;;;9.98;66.75
4392;BME280;2210;51.938;8.488;2023-02-15T12:46:25;101467.53;;;10.05;67.19
4392;BME280;2210;51.938;8.488;2023-02-15T12:50:29;101464.56;;;10.06;67.89
4392;BME280;2210;51.938;8.488;2023-02-15T12:54:45;101457.78;;;10.09;67.66
4392;BME280;2210;51.938;8.488;2023-02-15T12:59:04;101445.69;;;10.23;66.92
4392;BME280;2210;51.938;8.488;2023-02-15T13:03:16;101446.75;;;10.29;66.71
4392;BME280;2210;51.938;8.488;2023-02-15T13:07:17;101450.78;;;10.13;66.90
4392;BME280;2210;51.938;8.488;2023-02-15T13:11:31;101435.97;;;10.48;66.52
4392;BME280;2210;51.938;8.488;2023-02-15T13:15:37;101437.88;;;10.40;66.63
4392;BME280;2210;51.938;8.488;2023-02-15T13:19:53;101431.28;;;10.41;66.32
4392;BME280;2210;51.938;8.488;2023-02-15T13:24:00;101427.69;;;10.54;65.53
4392;BME280;2210;51.938;8.488;2023-02-15T13:28:02;101432.97;;;10.56;67.13
4392;BME280;2210;51.938;8.488;2023-02-15T13:32:57;101425.91;;;10.87;65.92
4392;BME280;2210;51.938;8.488;2023-02-15T13:37:08;101427.56;;;10.88;66.00
4392;BME280;2210;51.938;8.488;2023-02-15T13:41:17;101407.47;;;10.74;66.60
4392;BME280;2210;51.938;8.488;2023-02-15T13:45:39;101401.50;;;10.84;64.94
4392;BME280;2210;51.938;8.488;2023-02-15T13:59:23;101398.75;;;10.77;65.28
4392;BME280;2210;51.938;8.488;2023-02-15T14:03:52;101392.34;;;10.90;64.21
4392;BME280;2210;51.938;8.488;2023-02-15T14:12:45;101380.22;;;10.98;65.04
4392;BME280;2210;51.938;8.488;2023-02-15T14:21:34;101370.06;;;10.91;65.01
4392;BME280;2210;51.938;8.488;2023-02-15T14:25:43;101372.19;;;10.96;64.25
4392;BME280;2210;51.938;8.488;2023-02-15T14:29:53;101373.34;;;11.13;64.06
4392;BME280;2210;51.938;8.488;2023-02-15T14:33:59;101372.91;;;11.17;62.69
4392;BME280;2210;51.938;8.488;2023-02-15T14:38:13;101373.38;;;11.07;62.68
4392;BME280;2210;51.938;8.488;2023-02-15T14:42:34;101367.53;;;10.90;64.21
4392;BME280;2210;51.938;8.488;2023-02-15T14:50:59;101367.69;;;11.02;63.49
4392;BME280;2210;51.938;8.488;2023-02-15T14:55:00;101358.38;;;10.96;63.02
4392;BME280;2210;51.938;8.488;2023-02-15T14:59:13;101365.22;;;10.87;63.71
4392;BME280;2210;51.938;8.488;2023-02-15T15:03:21;101351.44;;;10.80;65.54
4392;BME280;2210;51.938;8.488;2023-02-15T15:07:41;101353.09;;;10.81;64.51
4392;BME280;2210;51.938;8.488;2023-02-15T15:11:51;101355.69;;;10.83;65.54
4392;BME280;2210;51.938;8.488;2023-02-15T15:15:52;101355.34;;;10.52;67.27
4392;BME280;2210;51.938;8.488;2023-02-15T15:23:53;101344.69;;;10.69;65.20
4392;BME280;2210;51.938;8.488;2023-02-15T15:27:56;101346.41;;;10.63;67.25
4392;BME280;2210;51.938;8.488;2023-02-15T15:31:59;101337.09;;;10.51;66.89
4392;BME280;2210;51.938;8.488;2023-02-15T15:36:18;101338.72;;;10.72;65.24
4392;BME280;2210;51.938;8.488;2023-02-15T15:45:03;101342.63;;;10.51;67.80
4392;BME280;2210;51.938;8.488;2023-02-15T15:49:12;101337.16;;;10.44;67.35
4392;BME280;2210;51.938;8.488;2023-02-15T15:53:23;101337.56;;;10.41;67.59
4392;BME280;2210;51.938;8.488;2023-02-15T15:57:41;101345.41;;;10.44;68.24
4392;BME280;2210;51.938;8.488;2023-02-15T16:01:43;101332.94;;;10.15;71.18
4392;BME280;2210;51.938;8.488;2023-02-15T16:05:44;101332.53;;;9.85;73.27
4392;BME280;2210;51.938;8.488;2023-02-15T16:14:26;101329.16;;;9.69;75.03
4392;BME280;2210;51.938;8.488;2023-02-15T16:18:29;101345.25;;;9.45;77.60
4392;BME280;2210;51.938;8.488;2023-02-15T16:22:31;101338.84;;;9.32;77.65
4392;BME280;2210;51.938;8.488;2023-02-15T16:26:48;101337.31;;;8.96;80.33
4392;BME280;2210;51.938;8.488;2023-02-15T16:31:05;101344.28;;;8.91;80.68
4392;BME280;2210;51.938;8.488;2023-02-15T16:35:14;101351.81;;;8.76;81.50
4392;BME280;2210;51.938;8.488;2023-02-15T16:39:20;101351.25;;;8.46;83.75
4392;BME280;2210;51.938;8.488;2023-02-15T16:43:24;101343.69;;;8.19;85.02
4392;BME280;2210;51.938;8.488;2023-02-15T16:47:28;101348.94;;;8.14;85.85
4392;BME280;2210;51.938;8.488;2023-02-15T16:51:33;101338.03;;;8.27;84.84
4392;BME280;2210;51.938;8.488;2023-02-15T16:55:39;101331.31;;;8.43;84.26
4392;BME280;2210;51.938;8.488;2023-02-15T16:59:45;101331.91;;;8.67;82.56
4392;BME280;2210;51.938;8.488;2023-02-15T17:03:51;101339.31;;;8.73;83.06
4392;BME280;2210;51.938;8.488;2023-02-15T17:08:06;101336.38;;;8.82;82.31
4392;BME280;2210;51.938;8.488;2023-02-15T17:12:08;101340.78;;;8.69;83.83
4392;BME280;2210;51.938;8.488;2023-02-15T17:16:23;101357.69;;;8.66;84.64
4392;BME280;2210;51.938;8.488;2023-02-15T17:20:33;101348.19;;;8.69;84.55
4392;BME280;2210;51.938;8.488;2023-02-15T17:24:41;101349.22;;;8.61;85.20
4392;BME280;2210;51.938;8.488;2023-02-15T17:28:46;101354.47;;;8.56;86.44
4392;BME280;2210;51.938;8.488;2023-02-15T17:32:57;101358.47;;;8.47;87.36
4392;BME280;2210;51.938;8.488;2023-02-15T17:36:58;101359.22;;;8.40;88.32
4392;BME280;2210;51.938;8.488;2023-02-15T17:40:59;101361.25;;;8.25;88.06
4392;BME280;2210;51.938;8.488;2023-02-15T17:44:59;101360.06;;;8.06;90.00
4392;BME280;2210;51.938;8.488;2023-02-15T17:49:03;101356.59;;;8.25;88.25
4392;BME280;2210;51.938;8.488;2023-02-15T17:53:04;101359.47;;;8.10;88.28
4392;BME280;2210;51.938;8.488;2023-02-15T17:57:11;101361.22;;;7.90;89.59
4392;BME280;2210;51.938;8.488;2023-02-15T18:01:17;101363.44;;;7.80;90.11
4392;BME280;2210;51.938;8.488;2023-02-15T18:05:36;101364.56;;;7.64;90.75
4392;BME280;2210;51.938;8.488;2023-02-15T18:09:55;101365.31;;;7.51;90.69
4392;BME280;2210;51.938;8.488;2023-02-15T18:14:14;101363.47;;;7.36;91.41
4392;BME280;2210;51.938;8.488;2023-02-15T18:18:14;101357.78;;;7.38;90.95
4392;BME280;2210;51.938;8.488;2023-02-15T18:22:17;101353.72;;;7.34;90.71
4392;BME280;2210;51.938;8.488;2023-02-15T18:26:21;101353.78;;;7.40;90.11
4392;BME280;2210;51.938;8.488;2023-02-15T18:30:23;101353.47;;;7.29;90.53
4392;BME280;2210;51.938;8.488;2023-02-15T18:34:37;101349.50;;;7.09;91.78
4392;BME280;2210;51.938;8.488;2023-02-15T18:38:41;101353.31;;;6.94;92.24
4392;BME280;2210;51.938;8.488;2023-02-15T18:42:42;101354.75;;;6.89;92.60
4392;BME280;2210;51.938;8.488;2023-02-15T18:46:46;101356.53;;;6.82;92.37
4392;BME280;2210;51.938;8.488;2023-02-15T18:50:46;101356.28;;;6.77;92.84
4392;BME280;2210;51.938;8.488;2023-02-15T18:54:50;101350.13;;;6.75;93.04
4392;BME280;2210;51.938;8.488;2023-02-15T18:58:51;101355.53;;;6.68;93.13
4392;BME280;2210;51.938;8.488;2023-02-15T19:02:53;101363.19;;;6.58;93.85
4392;BME280;2210;51.938;8.488;2023-02-15T19:06:57;101358.94;;;6.55;93.84
4392;BME280;2210;51.938;8.488;2023-02-15T19:10:58;101348.09;;;6.47;94.20
4392;BME280;2210;51.938;8.488;2023-02-15T19:14:58;101349.63;;;6.35;94.89
4392;BME280;2210;51.938;8.488;2023-02-15T19:18:59;101358.00;;;6.33;95.15
4392;BME280;2210;51.938;8.488;2023-02-15T19:23:00;101357.84;;;6.35;95.15
4392;BME280;2210;51.938;8.488;2023-02-15T19:27:01;101355.16;;;6.27;96.16
4392;BME280;2210;51.938;8.488;2023-02-15T19:31:11;101363.47;;;6.18;96.23
4392;BME280;2210;51.938;8.488;2023-02-15T19:35:20;101374.41;;;6.03;97.96
4392;BME280;2210;51.938;8.488;2023-02-15T19:39:27;101375.84;;;5.91;97.90
4392;BME280;2210;51.938;8.488;2023-02-15T19:43:30;101363.88;;;5.92;98.19
4392;BME280;2210;51.938;8.488;2023-02-15T19:47:40;101368.22;;;5.86;98.51
4392;BME280;2210;51.938;8.488;2023-02-15T19:51:45;101369.44;;;5.84;98.97
4392;BME280;2210;51.938;8.488;2023-02-15T19:55:46;101378.97;;;5.88;98.63
4392;BME280;2210;51.938;8.488;2023-02-15T19:59:47;101369.50;;;5.76;98.19
4392;BME280;2210;51.938;8.488;2023-02-15T20:03:50;101374.69;;;5.70;98.44
4392;BME280;2210;51.938;8.488;2023-02-15T20:07:51;101391.53;;;5.59;100.00
4392;BME280;2210;51.938;8.488;2023-02-15T20:11:58;101405.16;;;5.67;100.00
4392;BME280;2210;51.938;8.488;2023-02-15T20:16:02;101410.06;;;5.49;100.00
4392;BME280;2210;51.938;8.488;2023-02-15T20:20:05;101406.72;;;5.38;100.00
4392;BME280;2210;51.938;8.488;2023-02-15T20:24:12;101411.28;;;5.46;100.00
4392;BME280;2210;51.938;8.488;2023-02-15T20:28:21;101415.66;;;5.32;100.00
4392;BME280;2210;51.938;8.488;2023-02-15T20:32:22;101404.72;;;5.32;100.00
4392;BME280;2210;51.938;8.488;2023-02-15T20:36:23;101403.06;;;5.23;100.00
4392;BME280;2210;51.938;8.488;2023-02-15T20:40:29;101401.50;;;4.97;100.00
4392;BME280;2210;51.938;8.488;2023-02-15T20:44:30;101406.31;;;4.95;100.00
4392;BME280;2210;51.938;8.488;2023-02-15T20:48:30;101401.00;;;4.94;100.00
4392;BME280;2210;51.938;8.488;2023-02-15T20:52:31;101388.56;;;4.91;100.00
4392;BME280;2210;51.938;8.488;2023-02-15T20:56:34;101390.25;;;4.92;100.00
4392;BME280;2210;51.938;8.488;2023-02-15T21:00:36;101389.94;;;4.87;100.00
4392;BME280;2210;51.938;8.488;2023-02-15T21:04:40;101389.94;;;4.87;100.00
4392;BME280;2210;51.938;8.488;2023-02-15T21:08:40;101385.19;;;4.81;100.00
4392;BME280;2210;51.938;8.488;2023-02-15T21:12:41;101390.66;;;4.81;100.00
4392;BME280;2210;51.938;8.488;2023-02-15T21:16:41;101404.19;;;4.74;100.00
4392;BME280;2210;51.938;8.488;2023-02-15T21:20:45;101400.91;;;4.79;100.00
4392;BME280;2210;51.938;8.488;2023-02-15T21:24:49;101393.78;;;4.69;100.00
4392;BME280;2210;51.938;8.488;2023-02-15T21:28:52;101393.00;;;4.52;100.00
4392;BME280;2210;51.938;8.488;2023-02-15T21:32:54;101389.94;;;4.47;100.00
4392;BME280;2210;51.938;8.488;2023-02-15T21:36:57;101399.00;;;4.48;100.00
4392;BME280;2210;51.938;8.488;2023-02-15T21:40:58;101398.63;;;4.51;100.00
4392;BME280;2210;51.938;8.488;2023-02-15T21:45:30;101401.41;;;4.34;100.00
4392;BME280;2210;51.938;8.488;2023-02-15T21:49:49;101405.53;;;4.30;100.00
4392;BME280;2210;51.938;8.488;2023-02-15T21:53:49;101416.09;;;4.25;100.00
4392;BME280;2210;51.938;8.488;2023-02-15T21:57:53;101417.50;;;4.13;100.00
4392;BME280;2210;51.938;8.488;2023-02-15T22:01:53;101410.88;;;3.99;100.00
4392;BME280;2210;51.938;8.488;2023-02-15T22:06:00;101406.09;;;3.76;100.00
4392;BME280;2210;51.938;8.488;2023-02-15T22:10:01;101417.84;;;3.60;100.00
4392;BME280;2210;51.938;8.488;2023-02-15T22:14:02;101406.41;;;3.65;100.00
4392;BME280;2210;51.938;8.488;2023-02-15T22:18:04;101401.84;;;3.82;100.00
4392;BME280;2210;51.938;8.488;2023-02-15T22:22:14;101401.00;;;3.73;100.00
4392;BME280;2210;51.938;8.488;2023-02-15T22:26:23;101401.13;;;3.71;100.00
4392;BME280;2210;51.938;8.488;2023-02-15T22:30:32;101404.22;;;3.68;100.00
4392;BME280;2210;51.938;8.488;2023-02-15T22:34:33;101402.00;;;3.64;100.00
4392;BME280;2210;51.938;8.488;2023-02-15T22:38:36;101410.03;;;3.57;100.00
4392;BME280;2210;51.938;8.488;2023-02-15T22:42:37;101413.75;;;3.40;100.00
4392;BME280;2210;51.938;8.488;2023-02-15T22:46:40;101411.31;;;3.28;100.00
4392;BME280;2210;51.938;8.488;2023-02-15T22:50:40;101408.09;;;3.25;100.00
4392;BME280;2210;51.938;8.488;2023-02-15T22:54:41;101410.66;;;3.34;100.00
4392;BME280;2210;51.938;8.488;2023-02-15T22:58:41;101413.41;;;3.51;100.00
4392;BME280;2210;51.938;8.488;2023-02-15T23:02:45;101410.69;;;3.59;100.00
4392;BME280;2210;51.938;8.488;2023-02-15T23:06:46;101423.66;;;3.49;100.00
4392;BME280;2210;51.938;8.488;2023-02-15T23:10:53;101424.66;;;3.40;100.00
4392;BME280;2210;51.938;8.488;2023-02-15T23:15:08;101416.09;;;3.18;100.00
4392;BME280;2210;51.938;8.488;2023-02-15T23:19:13;101408.13;;;3.33;100.00
4392;BME280;2210;51.938;8.488;2023-02-15T23:23:14;101413.22;;;3.28;100.00
4392;BME280;2210;51.938;8.488;2023-02-15T23:27:17;101408.97;;;3.42;100.00
4392;BME280;2210;51.938;8.488;2023-02-15T23:31:39;101420.00;;;3.24;100.00
4392;BME280;2210;51.938;8.488;2023-02-15T23:35:44;101411.66;;;3.25;100.00
4392;BME280;2210;51.938;8.488;2023-02-15T23:39:50;101419.78;;;3.00;100.00
4392;BME280;2210;51.938;8.488;2023-02-15T23:44:11;101423.56;;;3.16;100.00
4392;BME280;2210;51.938;8.488;2023-02-15T23:48:23;101410.59;;;3.01;100.00
4392;BME280;2210;51.938;8.488;2023-02-15T23:52:30;101407.19;;;2.99;100.00